Time;durP1;ratioP1;P1;durP2;ratioP2;P2;SDS_P1;SDS_P2;PMS_P1;PMS_P2;Temp;Humidity;BMP_temperature;BMP_pressure;BME280_temperature;BME280_humidity;BME280_pressure;Samples;Min_cycle;Max_cycle;Signal;HPM_P1;HPM_P2
2023/01/26 00:00:52;;;;;;;36.22;14.93;;;1.30;99.90;;;;;;5113030;28;20233;-81
2023/01/26 00:03:19;;;;;;;39.88;16.80;;;1.30;99.90;;;;;;5128480;27;20222;-82
2023/01/26 00:05:45;;;;;;;37.42;15.93;;;1.30;99.90;;;;;;5111328;28;20239;-80
2023/01/26 00:08:11;;;;;;;40.78;15.88;;;1.30;99.90;;;;;;5113558;28;20174;-82
2023/01/26 00:10:48;;;;;;;40.90;16.88;;;1.30;99.90;;;;;;5109447;27;20189;-80
2023/01/26 00:13:21;;;;;;;37.72;15.48;;;1.40;99.90;;;;;;5110772;28;20198;-81
2023/01/26 00:15:47;;;;;;;29.58;12.40;;;1.30;99.90;;;;;;5110461;28;20176;-80
2023/01/26 00:18:13;;;;;;;40.55;15.95;;;1.30;99.90;;;;;;5113147;28;20663;-84
2023/01/26 00:20:39;;;;;;;39.80;16.08;;;1.30;99.90;;;;;;5101792;28;20188;-80
2023/01/26 00:23:05;;;;;;;33.55;14.85;;;1.30;99.90;;;;;;5117023;27;20195;-82
2023/01/26 00:25:31;;;;;;;41.58;16.50;;;1.30;99.90;;;;;;5114534;28;20185;-82
2023/01/26 00:27:57;;;;;;;38.95;15.85;;;1.30;99.90;;;;;;5110004;28;20185;-80
2023/01/26 00:30:23;;;;;;;35.50;15.25;;;1.40;99.90;;;;;;5081126;28;20322;-81
2023/01/26 00:32:49;;;;;;;33.97;14.55;;;1.30;99.90;;;;;;5110149;27;20211;-80
2023/01/26 00:35:15;;;;;;;37.08;15.52;;;1.30;99.90;;;;;;5117123;27;20184;-80
2023/01/26 00:37:41;;;;;;;33.47;14.10;;;1.40;99.90;;;;;;5101719;27;20209;-83
2023/01/26 00:40:08;;;;;;;37.50;15.80;;;1.30;99.90;;;;;;5114313;27;20321;-84
2023/01/26 00:42:34;;;;;;;39.88;16.08;;;1.30;99.90;;;;;;5099699;27;20280;-84
2023/01/26 00:45:01;;;;;;;39.53;16.40;;;1.40;99.90;;;;;;5116396;27;20696;-79
2023/01/26 00:47:27;;;;;;;40.95;16.83;;;1.30;99.90;;;;;;5115911;27;20180;-83
2023/01/26 00:49:52;;;;;;;38.15;15.70;;;1.30;99.90;;;;;;5113035;27;20173;-80
2023/01/26 00:52:18;;;;;;;38.65;16.70;;;1.40;99.90;;;;;;5113102;27;20194;-80
2023/01/26 00:54:44;;;;;;;37.75;16.40;;;1.40;99.90;;;;;;5114326;27;20212;-82
2023/01/26 00:57:13;;;;;;;40.08;16.13;;;1.40;99.90;;;;;;5115021;27;20570;-81
2023/01/26 00:59:40;;;;;;;40.58;16.70;;;1.40;99.90;;;;;;5097147;27;22425;-80
2023/01/26 01:02:06;;;;;;;41.60;16.83;;;1.40;99.90;;;;;;5112241;27;20707;-82
2023/01/26 01:04:32;;;;;;;37.80;16.27;;;1.40;99.90;;;;;;5115642;27;20283;-80
2023/01/26 01:06:59;;;;;;;36.50;14.77;;;1.40;99.90;;;;;;5109907;27;20243;-85
2023/01/26 01:09:25;;;;;;;39.72;16.90;;;1.40;99.90;;;;;;5113725;27;20180;-80
2023/01/26 01:11:51;;;;;;;38.85;15.82;;;1.40;99.90;;;;;;5114500;27;20193;-81
2023/01/26 01:14:17;;;;;;;42.17;16.20;;;1.40;99.90;;;;;;5114481;27;20196;-80
2023/01/26 01:16:44;;;;;;;37.55;16.20;;;1.40;99.90;;;;;;5114370;27;20955;-79
2023/01/26 01:19:14;;;;;;;43.22;16.45;;;1.40;99.90;;;;;;5111380;27;20192;-79
2023/01/26 01:21:41;;;;;;;39.30;16.13;;;1.40;99.90;;;;;;5111596;27;20322;-81
2023/01/26 01:24:09;;;;;;;43.03;17.70;;;1.40;99.90;;;;;;5117378;27;20183;-80
2023/01/26 01:26:36;;;;;;;39.92;16.52;;;1.40;99.90;;;;;;5117042;27;20196;-79
2023/01/26 01:29:03;;;;;;;42.38;17.83;;;1.50;99.90;;;;;;5118138;27;20180;-83
2023/01/26 01:31:29;;;;;;;41.75;16.35;;;1.40;99.90;;;;;;5120470;27;20236;-81
2023/01/26 01:33:55;;;;;;;37.08;15.40;;;1.40;99.90;;;;;;5098797;27;20662;-80
2023/01/26 01:36:21;;;;;;;34.03;15.10;;;1.50;99.90;;;;;;5116096;27;20240;-80
2023/01/26 01:38:50;;;;;;;42.47;16.80;;;1.50;99.90;;;;;;5100221;27;20185;-83
2023/01/26 01:41:19;;;;;;;39.90;15.10;;;1.50;99.90;;;;;;5110564;27;20230;-80
2023/01/26 01:43:45;;;;;;;39.10;16.55;;;1.50;99.90;;;;;;5114536;27;20173;-80
2023/01/26 01:46:30;;;;;;;39.33;16.55;;;1.50;99.90;;;;;;5113561;27;20191;-82
2023/01/26 01:49:05;;;;;;;35.80;15.70;;;1.50;99.90;;;;;;5117959;27;20219;-81
2023/01/26 01:51:37;;;;;;;30.88;13.88;;;1.50;99.90;;;;;;5112681;27;20228;-83
2023/01/26 01:54:09;;;;;;;33.42;14.07;;;1.50;99.90;;;;;;5115044;27;20177;-81
2023/01/26 01:56:38;;;;;;;36.13;15.50;;;1.50;99.90;;;;;;5115699;27;20253;-80
2023/01/26 01:59:07;;;;;;;32.03;13.60;;;1.50;99.90;;;;;;5116790;27;20181;-82
2023/01/26 02:01:33;;;;;;;33.35;14.05;;;1.50;99.90;;;;;;5108991;27;20181;-82
2023/01/26 02:04:01;;;;;;;32.47;13.68;;;1.50;99.90;;;;;;5116433;27;20215;-84
2023/01/26 02:06:55;;;;;;;29.60;13.40;;;1.50;99.90;;;;;;5115272;27;20709;-81
2023/01/26 02:12:25;;;;;;;32.50;12.95;;;1.60;99.90;;;;;;5117947;27;20181;-80
2023/01/26 02:14:52;;;;;;;32.53;13.55;;;1.50;99.90;;;;;;5116697;27;20188;-81
2023/01/26 02:17:18;;;;;;;28.55;12.38;;;1.50;99.90;;;;;;5113394;27;20282;-79
2023/01/26 02:20:06;;;;;;;34.60;14.50;;;1.50;99.90;;;;;;5112212;27;20181;-80
2023/01/26 02:23:05;;;;;;;28.75;12.98;;;1.50;99.90;;;;;;5113625;27;20236;-80
2023/01/26 02:25:48;;;;;;;29.63;13.00;;;1.50;99.90;;;;;;5111067;27;20512;-81
2023/01/26 02:28:15;;;;;;;31.77;12.70;;;1.60;99.90;;;;;;5115568;27;20239;-84
2023/01/26 02:30:41;;;;;;;29.63;12.52;;;1.60;99.90;;;;;;5110650;27;20181;-81
2023/01/26 02:33:13;;;;;;;30.85;13.70;;;1.60;99.90;;;;;;5113551;27;20648;-81
2023/01/26 02:35:39;;;;;;;32.17;13.88;;;1.60;99.90;;;;;;5110504;27;20188;-80
2023/01/26 02:38:06;;;;;;;34.42;14.07;;;1.60;99.90;;;;;;5097019;27;20221;-80
2023/01/26 02:40:38;;;;;;;31.40;12.73;;;1.60;99.90;;;;;;5112709;27;20220;-79
2023/01/26 02:43:04;;;;;;;30.27;13.95;;;1.60;99.90;;;;;;5112926;27;20290;-80
2023/01/26 02:45:32;;;;;;;31.55;13.68;;;1.60;99.90;;;;;;5112194;27;20658;-84
2023/01/26 02:48:03;;;;;;;32.83;13.00;;;1.60;99.90;;;;;;5098945;27;20204;-81
2023/01/26 02:50:30;;;;;;;31.95;13.52;;;1.70;99.90;;;;;;5094887;27;20612;-83
2023/01/26 02:52:56;;;;;;;36.28;14.45;;;1.70;99.90;;;;;;5116437;27;20546;-79
2023/01/26 02:55:26;;;;;;;37.50;15.30;;;1.70;99.90;;;;;;5110246;27;20192;-80
2023/01/26 02:57:55;;;;;;;36.90;14.45;;;1.70;99.90;;;;;;5112606;27;20231;-80
2023/01/26 03:00:29;;;;;;;35.65;15.25;;;1.70;99.90;;;;;;5112609;27;20195;-80
2023/01/26 03:02:58;;;;;;;37.78;15.57;;;1.70;99.90;;;;;;5095819;27;20180;-80
2023/01/26 03:05:26;;;;;;;37.28;15.48;;;1.80;99.90;;;;;;5110026;27;20224;-83
2023/01/26 03:07:53;;;;;;;36.83;14.68;;;1.70;99.90;;;;;;5109754;27;20180;-80
2023/01/26 03:10:24;;;;;;;36.25;14.13;;;1.80;99.90;;;;;;5108960;27;20196;-81
2023/01/26 03:12:51;;;;;;;28.67;13.57;;;1.80;99.90;;;;;;5114484;27;20185;-81
2023/01/26 03:29:06;;;;;;;43.97;16.10;;;1.90;99.90;;;;;;5111272;28;20197;-79
2023/01/26 03:31:32;;;;;;;36.97;14.63;;;1.90;99.90;;;;;;5110710;28;20184;-79
2023/01/26 03:33:59;;;;;;;38.05;15.20;;;1.90;99.90;;;;;;5111205;28;20185;-79
2023/01/26 03:36:25;;;;;;;38.40;15.50;;;1.90;99.90;;;;;;5091873;28;20548;-79
2023/01/26 03:38:51;;;;;;;42.10;14.75;;;2.00;99.90;;;;;;5108362;28;20200;-79
2023/01/26 03:57:48;;;;;;;32.55;13.93;;;2.10;99.90;;;;;;5114285;27;20222;-80
2023/01/26 04:00:15;;;;;;;33.15;14.13;;;2.10;99.90;;;;;;5111805;28;20195;-80
2023/01/26 04:08:27;;;;;;;44.95;15.52;;;2.10;99.90;;;;;;5115657;27;20189;-80
2023/01/26 04:10:56;;;;;;;41.17;15.90;;;2.00;99.90;;;;;;5132963;27;20663;-80
2023/01/26 04:21:41;;;;;;;36.80;15.60;;;2.10;99.90;;;;;;5100745;27;20738;-82
2023/01/26 04:24:16;;;;;;;38.42;15.55;;;2.20;99.90;;;;;;5097675;27;20271;-81
2023/01/26 04:26:42;;;;;;;46.22;15.98;;;2.20;99.90;;;;;;5116387;27;20190;-81
2023/01/26 04:29:13;;;;;;;38.38;16.52;;;2.20;99.90;;;;;;5099152;27;20168;-81
2023/01/26 04:31:41;;;;;;;39.00;16.83;;;2.20;99.90;;;;;;5095897;27;20239;-80
2023/01/26 04:34:13;;;;;;;45.28;17.38;;;2.20;99.90;;;;;;5112720;27;20967;-81
2023/01/26 04:36:40;;;;;;;49.05;15.85;;;2.30;99.90;;;;;;5117053;27;20212;-81
2023/01/26 04:39:06;;;;;;;48.40;17.52;;;2.30;99.90;;;;;;5115105;27;20209;-84
2023/01/26 04:41:33;;;;;;;45.33;17.38;;;2.30;99.90;;;;;;5114479;27;20188;-84
2023/01/26 04:44:07;;;;;;;54.38;18.23;;;2.30;99.90;;;;;;5101354;27;20188;-82
2023/01/26 04:46:33;;;;;;;47.33;18.08;;;2.40;99.90;;;;;;5112353;27;20314;-80
2023/01/26 04:49:00;;;;;;;52.80;18.30;;;2.40;99.90;;;;;;5117141;27;20329;-82
2023/01/26 04:51:27;;;;;;;59.00;19.25;;;2.50;99.90;;;;;;5112136;27;20631;-85
2023/01/26 04:53:53;;;;;;;63.90;18.85;;;2.40;99.90;;;;;;5099235;27;22211;-82
2023/01/26 04:56:30;;;;;;;63.92;19.35;;;2.50;99.90;;;;;;5082814;27;20723;-86
2023/01/26 04:58:59;;;;;;;54.10;17.83;;;2.50;99.90;;;;;;5115407;27;20228;-82
2023/01/26 05:01:26;;;;;;;60.65;19.65;;;2.50;99.90;;;;;;5111598;27;20281;-79
2023/01/26 05:03:51;;;;;;;60.08;19.30;;;2.60;99.90;;;;;;5096091;27;20193;-79
2023/01/26 05:06:17;;;;;;;52.60;17.90;;;2.60;99.90;;;;;;5130157;27;20316;-85
2023/01/26 05:08:46;;;;;;;53.88;18.77;;;2.60;99.90;;;;;;5113054;27;20207;-81
2023/01/26 05:11:12;;;;;;;59.45;19.67;;;2.60;99.90;;;;;;5114913;27;20292;-80
2023/01/26 05:14:04;;;;;;;52.72;17.02;;;2.70;99.90;;;;;;5084290;27;21119;-81
2023/01/26 05:16:48;;;;;;;53.65;18.48;;;2.60;99.90;;;;;;5111374;27;20324;-81
2023/01/26 05:19:32;;;;;;;58.10;19.27;;;2.70;99.90;;;;;;5112544;27;20208;-79
2023/01/26 05:22:17;;;;;;;54.75;18.15;;;2.70;99.90;;;;;;5098076;27;20260;-82
2023/01/26 05:25:03;;;;;;;56.05;18.23;;;2.80;99.90;;;;;;5111146;27;20185;-83
2023/01/26 05:27:36;;;;;;;58.70;17.77;;;2.80;99.90;;;;;;5114512;27;20177;-82
2023/01/26 05:30:02;;;;;;;57.08;16.98;;;2.80;99.90;;;;;;5097946;27;20200;-79
2023/01/26 05:32:31;;;;;;;56.83;17.98;;;2.90;99.90;;;;;;5115045;27;20542;-80
2023/01/26 05:34:57;;;;;;;60.35;17.77;;;2.90;99.90;;;;;;5094092;27;20185;-79
2023/01/26 05:37:27;;;;;;;54.85;17.02;;;2.90;99.90;;;;;;5109294;27;20353;-79
2023/01/26 05:39:55;;;;;;;62.35;17.48;;;3.00;99.90;;;;;;5132313;27;22309;-82
2023/01/26 05:42:22;;;;;;;66.72;17.35;;;3.00;99.90;;;;;;5132669;27;20316;-83
2023/01/26 05:45:17;;;;;;;58.17;16.17;;;3.10;99.90;;;;;;5094553;27;20185;-85
2023/01/26 05:47:44;;;;;;;59.63;16.50;;;3.10;99.90;;;;;;5095882;27;20181;-79
2023/01/26 05:50:11;;;;;;;64.43;16.67;;;3.20;99.90;;;;;;5111117;27;20581;-82
2023/01/26 05:52:38;;;;;;;69.72;15.55;;;3.20;99.90;;;;;;5098665;27;20813;-81
2023/01/26 05:55:05;;;;;;;68.80;15.93;;;3.20;99.90;;;;;;5113597;27;20181;-80
2023/01/26 05:57:33;;;;;;;67.43;15.52;;;3.30;99.90;;;;;;5097863;27;20302;-85
2023/01/26 06:00:07;;;;;;;72.20;14.77;;;3.30;99.90;;;;;;5108507;27;20726;-85
2023/01/26 06:02:40;;;;;;;75.20;15.05;;;3.40;99.90;;;;;;5112657;27;20195;-79
2023/01/26 06:05:08;;;;;;;58.88;13.45;;;3.40;99.90;;;;;;5110788;27;20331;-79
2023/01/26 06:07:34;;;;;;;60.08;13.23;;;3.40;99.90;;;;;;5109558;27;20238;-80
2023/01/26 06:10:23;;;;;;;55.78;12.65;;;3.50;99.90;;;;;;5108449;27;20656;-83
2023/01/26 06:13:04;;;;;;;68.80;11.65;;;3.50;99.90;;;;;;5116203;27;20735;-81
2023/01/26 06:15:39;;;;;;;55.78;11.40;;;3.60;99.90;;;;;;5110401;27;20207;-79
2023/01/26 06:18:06;;;;;;;60.65;11.23;;;3.70;99.90;;;;;;5109230;27;20266;-83
2023/01/26 06:20:33;;;;;;;63.78;11.00;;;3.70;99.90;;;;;;5109405;27;20281;-82
2023/01/26 06:23:00;;;;;;;58.28;9.48;;;3.80;99.90;;;;;;5115230;27;20189;-84
2023/01/26 06:25:27;;;;;;;58.10;9.25;;;3.80;99.90;;;;;;5113830;27;20184;-80
2023/01/26 06:27:56;;;;;;;52.28;8.18;;;3.90;99.90;;;;;;5104181;27;20208;-80
2023/01/26 06:30:25;;;;;;;59.90;7.88;;;3.90;99.90;;;;;;5095069;27;20180;-79
2023/01/26 06:32:53;;;;;;;40.95;7.85;;;3.90;99.90;;;;;;5110271;27;20179;-79
2023/01/26 06:35:20;;;;;;;56.28;7.45;;;4.00;99.90;;;;;;5109079;27;20566;-79
2023/01/26 06:37:48;;;;;;;58.65;6.32;;;4.00;99.90;;;;;;5112828;27;20243;-82
2023/01/26 06:40:15;;;;;;;55.72;6.78;;;4.00;99.90;;;;;;5093937;27;20183;-79
2023/01/26 06:42:47;;;;;;;51.97;5.30;;;4.00;99.90;;;;;;5077657;27;20241;-84
2023/01/26 06:45:13;;;;;;;57.83;6.30;;;4.10;99.90;;;;;;5078354;27;20180;-85
2023/01/26 06:47:47;;;;;;;55.55;5.60;;;4.10;99.90;;;;;;5111392;27;20189;-82
2023/01/26 06:50:16;;;;;;;59.72;5.43;;;4.10;99.90;;;;;;5097647;27;20207;-78
2023/01/26 06:52:49;;;;;;;65.32;5.15;;;4.20;99.90;;;;;;5115185;27;20199;-82
2023/01/26 06:55:36;;;;;;;42.60;5.07;;;4.20;99.90;;;;;;5111035;27;20259;-79
2023/01/26 06:58:20;;;;;;;54.13;5.22;;;4.30;99.90;;;;;;5109489;27;20702;-79
2023/01/26 07:01:08;;;;;;;63.33;6.07;;;4.30;99.90;;;;;;5089861;27;20436;-81
2023/01/26 07:03:34;;;;;;;54.75;5.70;;;4.30;99.90;;;;;;5125560;27;20208;-84
2023/01/26 07:05:59;;;;;;;46.58;5.60;;;4.40;99.90;;;;;;5111564;27;20688;-79
2023/01/26 07:08:25;;;;;;;56.30;5.30;;;4.30;99.90;;;;;;5107288;27;20196;-81
2023/01/26 07:10:51;;;;;;;54.80;6.35;;;4.30;99.90;;;;;;5111667;27;20327;-80
2023/01/26 07:13:17;;;;;;;81.05;6.70;;;4.30;99.90;;;;;;5112289;27;20199;-79
2023/01/26 07:15:42;;;;;;;68.70;6.47;;;4.30;99.90;;;;;;5108576;27;20197;-81
2023/01/26 07:18:08;;;;;;;57.25;5.35;;;4.30;99.90;;;;;;5105194;27;20196;-79
2023/01/26 07:20:36;;;;;;;56.10;6.10;;;4.20;99.90;;;;;;5098140;28;20177;-80
2023/01/26 07:23:01;;;;;;;64.65;7.50;;;4.30;99.90;;;;;;5114949;27;20177;-80
2023/01/26 07:25:27;;;;;;;58.05;6.32;;;4.20;99.90;;;;;;5111858;27;20516;-81
2023/01/26 07:27:57;;;;;;;49.67;5.90;;;4.20;99.90;;;;;;5107875;28;20197;-78
2023/01/26 07:30:23;;;;;;;48.63;6.38;;;4.20;99.90;;;;;;5111319;28;20193;-78
2023/01/26 07:32:49;;;;;;;57.13;5.50;;;4.20;99.90;;;;;;5108897;28;20533;-77
2023/01/26 07:35:15;;;;;;;54.88;5.90;;;4.20;99.90;;;;;;5111858;27;20303;-79
2023/01/26 07:37:41;;;;;;;60.65;6.43;;;4.20;99.90;;;;;;5107912;28;20224;-80
2023/01/26 07:40:07;;;;;;;53.15;6.72;;;4.20;99.90;;;;;;5107968;28;20185;-79
2023/01/26 07:42:33;;;;;;;70.30;7.22;;;4.20;99.90;;;;;;5110404;27;20203;-79
2023/01/26 07:45:17;;;;;;;64.20;6.63;;;4.30;99.90;;;;;;5113091;27;20254;-77
2023/01/26 07:47:43;;;;;;;55.42;6.75;;;4.30;99.90;;;;;;5112804;27;20209;-82
2023/01/26 07:50:10;;;;;;;66.18;7.22;;;4.30;99.90;;;;;;5114260;27;20199;-83
2023/01/26 07:52:37;;;;;;;52.58;6.68;;;4.30;99.90;;;;;;5113274;27;20283;-80
2023/01/26 07:55:03;;;;;;;60.50;6.38;;;4.30;99.90;;;;;;5116507;27;20766;-82
2023/01/26 07:57:29;;;;;;;60.92;6.78;;;4.30;99.90;;;;;;5115061;27;20307;-80
2023/01/26 07:59:55;;;;;;;63.60;6.70;;;4.30;99.90;;;;;;5116898;27;20180;-82
2023/01/26 08:02:21;;;;;;;60.33;7.03;;;4.30;99.90;;;;;;5113336;27;20198;-79
2023/01/26 08:04:48;;;;;;;51.47;6.93;;;4.30;99.90;;;;;;5120598;27;20286;-81
2023/01/26 08:07:14;;;;;;;60.35;5.88;;;4.30;99.90;;;;;;5113969;27;20243;-80
2023/01/26 08:09:40;;;;;;;64.40;6.28;;;4.30;99.90;;;;;;5116738;27;20185;-77
2023/01/26 08:12:06;;;;;;;57.45;8.57;;;4.20;99.90;;;;;;5115777;27;20177;-82
2023/01/26 08:14:32;;;;;;;58.42;7.82;;;4.30;99.90;;;;;;5137425;27;20604;-81
2023/01/26 08:16:58;;;;;;;63.65;7.63;;;4.30;99.90;;;;;;5112527;27;20228;-82
2023/01/26 08:19:24;;;;;;;67.95;7.28;;;4.30;99.90;;;;;;5112432;27;20191;-81
2023/01/26 08:21:50;;;;;;;60.47;6.70;;;4.30;99.90;;;;;;5115532;27;20181;-78
2023/01/26 08:24:16;;;;;;;50.85;6.50;;;4.30;99.90;;;;;;5117953;27;20271;-77
2023/01/26 08:26:42;;;;;;;62.55;6.90;;;4.30;99.90;;;;;;5117660;27;20587;-79
2023/01/26 08:29:07;;;;;;;59.75;6.60;;;4.40;99.90;;;;;;5114216;27;20188;-79
2023/01/26 08:31:33;;;;;;;49.97;6.47;;;4.60;99.90;;;;;;5080910;27;20195;-77
2023/01/26 08:33:59;;;;;;;48.55;6.13;;;5.10;99.90;;;;;;5113433;27;20191;-80
2023/01/26 08:36:25;;;;;;;58.85;6.82;;;5.70;99.90;;;;;;5114305;27;20692;-85
2023/01/26 08:38:51;;;;;;;62.17;7.72;;;6.40;99.90;;;;;;5084596;27;20370;-77
2023/01/26 08:41:17;;;;;;;47.92;6.53;;;7.20;99.90;;;;;;5114642;27;20188;-80
2023/01/26 08:43:43;;;;;;;57.53;6.45;;;7.80;99.90;;;;;;5117652;27;20316;-78
2023/01/26 08:46:09;;;;;;;41.65;6.68;;;8.50;99.90;;;;;;5115467;27;21907;-76
2023/01/26 08:48:36;;;;;;;42.08;5.72;;;9.00;99.90;;;;;;5116008;27;20360;-80
2023/01/26 08:51:03;;;;;;;49.83;8.32;;;9.50;99.90;;;;;;5114609;27;20252;-77
2023/01/26 08:53:31;;;;;;;58.85;7.47;;;10.00;99.90;;;;;;5117553;27;20560;-79
2023/01/26 08:55:57;;;;;;;49.25;6.28;;;10.50;99.90;;;;;;5114210;27;20197;-84
2023/01/26 08:58:22;;;;;;;51.00;6.70;;;10.80;99.90;;;;;;5115865;27;20234;-79
2023/01/26 09:00:48;;;;;;;38.13;5.70;;;11.20;99.90;;;;;;5113384;27;20291;-78
2023/01/26 09:03:14;;;;;;;47.20;5.90;;;11.60;99.90;;;;;;5114984;27;20188;-78
2023/01/26 09:05:40;;;;;;;41.42;5.95;;;11.80;99.90;;;;;;5094653;27;20266;-79
2023/01/26 09:08:07;;;;;;;44.03;5.57;;;12.00;99.90;;;;;;5112757;27;20184;-78
2023/01/26 09:10:33;;;;;;;37.85;5.72;;;12.20;99.90;;;;;;5115454;27;20180;-78
2023/01/26 09:13:00;;;;;;;39.20;7.03;;;12.40;99.90;;;;;;5113743;27;20229;-84
2023/01/26 09:15:26;;;;;;;34.00;5.18;;;12.60;99.90;;;;;;5113640;27;20215;-79
2023/01/26 09:17:52;;;;;;;50.28;6.25;;;12.60;99.90;;;;;;5114935;27;20617;-79
2023/01/26 09:20:19;;;;;;;37.72;6.93;;;12.70;99.90;;;;;;5111457;27;20192;-80
2023/01/26 09:22:45;;;;;;;33.95;5.25;;;12.90;99.90;;;;;;5114550;27;20220;-82
2023/01/26 09:25:11;;;;;;;25.00;4.32;;;13.00;99.90;;;;;;5114478;27;21512;-83
2023/01/26 09:27:37;;;;;;;35.10;5.03;;;13.20;99.90;;;;;;5114658;27;20212;-77
2023/01/26 09:30:05;;;;;;;36.58;5.28;;;13.10;99.90;;;;;;5111102;27;20322;-82
2023/01/26 09:32:31;;;;;;;27.70;4.63;;;12.90;99.90;;;;;;5115759;27;20342;-78
2023/01/26 09:34:57;;;;;;;26.08;4.53;;;12.60;99.90;;;;;;5113594;27;20191;-80
2023/01/26 09:37:22;;;;;;;34.80;4.93;;;12.40;99.90;;;;;;5115062;27;20265;-81
2023/01/26 09:39:48;;;;;;;28.80;4.68;;;12.40;99.90;;;;;;5117154;27;20181;-79
2023/01/26 09:42:20;;;;;;;31.27;4.82;;;12.40;99.90;;;;;;5102787;27;20189;-83
2023/01/26 09:45:11;;;;;;;32.40;4.88;;;12.50;99.90;;;;;;5113381;27;20206;-78
2023/01/26 09:48:00;;;;;;;30.77;4.28;;;12.40;99.90;;;;;;5115228;27;20173;-78
2023/01/26 09:50:34;;;;;;;33.88;4.35;;;12.30;99.90;;;;;;5112248;27;20264;-79
2023/01/26 09:53:11;;;;;;;24.00;4.85;;;12.20;99.90;;;;;;5114350;27;20176;-82
2023/01/26 09:55:40;;;;;;;24.95;4.32;;;12.10;99.90;;;;;;5113574;27;20184;-84
2023/01/26 09:58:25;;;;;;;35.53;5.20;;;12.00;99.90;;;;;;5113644;27;20196;-83
2023/01/26 10:01:01;;;;;;;32.45;4.90;;;11.80;99.90;;;;;;5113037;27;20754;-79
2023/01/26 10:04:00;;;;;;;29.17;4.85;;;11.70;99.90;;;;;;5116328;27;20176;-81
2023/01/26 10:06:30;;;;;;;32.25;4.22;;;11.50;99.90;;;;;;5096898;27;22244;-78
2023/01/26 10:09:28;;;;;;;27.92;4.25;;;11.30;99.90;;;;;;5113165;27;20254;-78
2023/01/26 10:11:59;;;;;;;25.77;4.07;;;11.20;99.90;;;;;;5114504;27;20365;-80
2023/01/26 10:14:41;;;;;;;39.10;4.35;;;11.20;99.90;;;;;;5117353;27;20173;-78
2023/01/26 10:17:17;;;;;;;38.05;4.75;;;11.30;99.90;;;;;;5116528;27;20204;-78
2023/01/26 10:19:52;;;;;;;29.95;4.38;;;11.50;99.90;;;;;;5114863;27;20168;-78
2023/01/26 10:22:21;;;;;;;20.65;3.70;;;11.70;99.90;;;;;;5111659;27;20236;-79
2023/01/26 10:24:51;;;;;;;32.40;4.43;;;11.80;99.90;;;;;;5100013;27;20717;-85
2023/01/26 10:27:17;;;;;;;29.00;4.03;;;12.00;99.90;;;;;;5112234;27;20208;-84
2023/01/26 10:29:43;;;;;;;30.95;4.22;;;12.20;99.90;;;;;;5100730;27;20697;-80
2023/01/26 10:32:27;;;;;;;30.92;3.70;;;12.50;99.90;;;;;;5097511;27;20279;-85
2023/01/26 10:34:53;;;;;;;28.70;4.85;;;12.70;99.90;;;;;;5114173;27;20169;-77
2023/01/26 10:37:22;;;;;;;22.48;3.78;;;12.80;99.90;;;;;;5112180;27;20208;-80
2023/01/26 10:39:57;;;;;;;25.80;3.83;;;12.70;99.90;;;;;;5116753;27;20263;-80
2023/01/26 10:42:27;;;;;;;25.55;3.88;;;12.40;99.90;;;;;;5113446;27;20180;-80
2023/01/26 10:44:52;;;;;;;28.42;3.55;;;12.20;99.90;;;;;;5133978;27;20177;-79
2023/01/26 10:47:20;;;;;;;29.48;4.78;;;12.00;99.90;;;;;;5109482;27;20197;-84
2023/01/26 10:49:47;;;;;;;34.85;3.95;;;12.00;99.90;;;;;;5111406;27;20303;-79
2023/01/26 10:52:26;;;;;;;30.20;4.10;;;12.10;99.90;;;;;;5110931;27;20283;-78
2023/01/26 10:55:18;;;;;;;29.45;4.40;;;12.20;99.90;;;;;;5113195;27;20184;-80
2023/01/26 10:57:44;;;;;;;26.38;4.05;;;12.60;99.90;;;;;;5113802;27;20339;-79
2023/01/26 11:00:22;;;;;;;34.97;4.28;;;12.70;99.90;;;;;;5114291;27;20188;-80
2023/01/26 11:02:54;;;;;;;20.40;3.30;;;12.70;99.90;;;;;;5117454;27;20542;-78
2023/01/26 11:05:21;;;;;;;24.02;3.90;;;12.50;99.90;;;;;;5120483;27;20181;-79
2023/01/26 11:07:59;;;;;;;26.85;4.20;;;12.20;99.90;;;;;;5111999;27;20319;-78
2023/01/26 11:10:36;;;;;;;25.92;3.80;;;12.00;99.90;;;;;;5114464;27;20173;-78
2023/01/26 11:13:18;;;;;;;25.70;3.72;;;11.70;99.90;;;;;;5115926;27;20194;-78
2023/01/26 11:16:03;;;;;;;24.77;4.03;;;11.60;99.90;;;;;;5110836;27;20180;-79
2023/01/26 11:18:45;;;;;;;23.77;3.60;;;11.70;99.90;;;;;;5114723;27;20230;-81
2023/01/26 11:21:30;;;;;;;24.05;3.17;;;11.90;99.90;;;;;;5112323;27;20233;-84
2023/01/26 11:24:03;;;;;;;19.98;3.22;;;12.20;99.90;;;;;;5111723;28;20216;-80
2023/01/26 11:26:56;;;;;;;20.73;2.80;;;12.40;99.90;;;;;;5113020;28;20200;-81
2023/01/26 11:29:25;;;;;;;19.90;3.30;;;12.60;99.90;;;;;;5115611;28;20263;-83
2023/01/26 11:31:51;;;;;;;16.95;2.90;;;12.90;99.90;;;;;;5112554;28;20185;-81
2023/01/26 11:34:35;;;;;;;23.30;2.90;;;13.10;99.90;;;;;;5112292;27;20225;-79
2023/01/26 11:37:38;;;;;;;18.15;2.35;;;13.30;99.90;;;;;;5112863;28;20208;-80
2023/01/26 11:40:43;;;;;;;16.70;2.72;;;13.30;99.90;;;;;;5112785;28;20180;-80
2023/01/26 11:43:15;;;;;;;14.25;2.30;;;13.30;99.90;;;;;;5115760;28;20176;-82
2023/01/26 11:45:52;;;;;;;14.38;2.90;;;13.00;99.90;;;;;;5113676;28;20184;-80
2023/01/26 11:48:30;;;;;;;11.60;2.30;;;12.80;99.90;;;;;;5132476;27;20181;-79
2023/01/26 11:51:34;;;;;;;16.58;2.70;;;12.50;99.90;;;;;;5119192;27;20254;-78
2023/01/26 11:54:21;;;;;;;23.08;2.53;;;12.10;99.90;;;;;;5115112;28;20661;-82
2023/01/26 11:57:18;;;;;;;18.55;2.55;;;11.80;99.90;;;;;;5113635;28;20549;-81
2023/01/26 11:59:47;;;;;;;15.63;2.30;;;11.50;99.90;;;;;;5112669;28;20181;-83
2023/01/26 12:02:32;;;;;;;13.80;2.38;;;11.30;99.90;;;;;;5112136;28;20181;-83
2023/01/26 12:05:22;;;;;;;19.85;2.80;;;11.20;99.90;;;;;;5118509;28;20201;-82
2023/01/26 12:08:00;;;;;;;15.90;2.40;;;11.00;99.90;;;;;;5113616;28;20246;-79
2023/01/26 12:10:40;;;;;;;21.13;3.45;;;10.90;99.90;;;;;;5112068;27;20663;-83
2023/01/26 12:13:37;;;;;;;26.48;4.35;;;10.90;99.90;;;;;;5112694;28;20589;-85
2023/01/26 12:16:19;;;;;;;24.23;3.30;;;10.90;99.90;;;;;;5110380;28;21052;-81
2023/01/26 12:18:58;;;;;;;16.98;3.42;;;10.90;99.90;;;;;;5113999;28;20257;-79
2023/01/26 12:21:27;;;;;;;20.92;2.67;;;10.90;99.90;;;;;;5109762;28;20187;-86
2023/01/26 12:24:02;;;;;;;18.98;2.65;;;10.90;99.90;;;;;;5113118;28;20268;-83
2023/01/26 12:26:34;;;;;;;25.92;3.50;;;10.90;99.90;;;;;;5111094;28;20543;-82
2023/01/26 12:29:16;;;;;;;19.88;3.47;;;10.80;99.90;;;;;;5114324;27;20177;-84
2023/01/26 12:32:12;;;;;;;23.08;3.13;;;10.60;99.90;;;;;;5115903;27;20188;-80
2023/01/26 12:34:38;;;;;;;19.70;2.60;;;10.50;99.90;;;;;;5109442;27;20200;-81
2023/01/26 12:37:28;;;;;;;25.33;2.95;;;10.50;99.90;;;;;;5116659;27;20193;-80
2023/01/26 12:40:12;;;;;;;16.65;2.95;;;10.30;99.90;;;;;;5120590;27;20650;-83
2023/01/26 12:42:48;;;;;;;20.08;2.58;;;10.30;99.90;;;;;;5117020;27;20672;-83
2023/01/26 12:45:28;;;;;;;15.60;2.13;;;10.20;99.90;;;;;;5117162;27;20580;-82
2023/01/26 12:48:03;;;;;;;18.33;2.70;;;10.10;99.90;;;;;;5115418;27;20248;-79
2023/01/26 12:50:44;;;;;;;14.77;2.25;;;10.10;99.90;;;;;;5113855;27;20672;-82
2023/01/26 12:53:36;;;;;;;16.65;2.30;;;10.00;99.90;;;;;;5116064;27;20216;-81
2023/01/26 12:56:15;;;;;;;21.85;2.28;;;10.00;99.90;;;;;;5098203;27;20712;-82
2023/01/26 12:58:44;;;;;;;14.77;2.50;;;10.00;99.90;;;;;;5132558;27;20215;-84
2023/01/26 13:01:16;;;;;;;11.50;2.05;;;10.00;99.90;;;;;;5114715;27;20202;-83
2023/01/26 13:03:50;;;;;;;10.82;1.73;;;10.00;99.90;;;;;;5116179;27;20184;-83
2023/01/26 13:06:21;;;;;;;13.32;2.03;;;9.90;99.90;;;;;;5114668;27;20392;-78
2023/01/26 13:08:59;;;;;;;11.93;1.70;;;9.90;99.90;;;;;;5117181;27;20247;-79
2023/01/26 13:11:43;;;;;;;10.95;1.90;;;9.90;99.90;;;;;;5114177;27;20180;-79
2023/01/26 13:14:42;;;;;;;18.48;2.20;;;9.90;99.90;;;;;;5115171;27;20188;-78
2023/01/26 13:17:14;;;;;;;11.05;1.95;;;9.80;99.90;;;;;;5114341;27;20192;-79
2023/01/26 13:19:43;;;;;;;14.65;2.40;;;9.80;99.90;;;;;;5115816;27;20197;-80
2023/01/26 13:22:18;;;;;;;10.35;2.30;;;9.80;99.90;;;;;;5112003;27;20189;-80
2023/01/26 13:25:06;;;;;;;10.50;1.58;;;9.70;99.90;;;;;;5114150;27;20268;-81
2023/01/26 13:27:38;;;;;;;12.90;1.98;;;9.70;99.90;;;;;;5112181;27;20214;-84
2023/01/26 13:30:25;;;;;;;13.68;1.60;;;9.60;99.90;;;;;;5112144;27;20222;-79
2023/01/26 13:32:58;;;;;;;19.60;2.40;;;9.60;99.90;;;;;;5112820;27;20191;-80
2023/01/26 13:35:25;;;;;;;11.35;1.88;;;9.60;99.90;;;;;;5110662;27;20636;-78
2023/01/26 13:38:37;;;;;;;14.07;2.33;;;9.50;99.90;;;;;;5095060;27;20243;-78
2023/01/26 13:41:09;;;;;;;18.27;2.17;;;9.50;99.90;;;;;;5030164;28;20192;-79
2023/01/26 13:43:40;;;;;;;14.95;2.10;;;9.40;99.90;;;;;;5033344;28;20732;-80
2023/01/26 13:46:11;;;;;;;18.98;2.55;;;9.40;99.90;;;;;;5079403;27;20276;-79
2023/01/26 13:48:48;;;;;;;18.65;2.50;;;9.40;99.90;;;;;;5113887;27;20195;-79